createdAt,value
2023-01-21T00:00:11.826Z,30.23
2023-01-21T00:02:38.505Z,28.83
2023-01-21T00:05:05.579Z,26.93
2023-01-21T00:07:32.207Z,29.37
2023-01-21T00:09:58.893Z,30.37
2023-01-21T00:12:25.541Z,29.33
2023-01-21T00:14:52.184Z,28.07
2023-01-21T00:17:18.855Z,28.20
2023-01-21T00:19:45.585Z,26.03
2023-01-21T00:22:12.445Z,29.03
2023-01-21T00:24:39.192Z,29.33
2023-01-21T00:27:05.919Z,27.20
2023-01-21T00:29:32.582Z,28.63
2023-01-21T00:31:59.324Z,26.90
2023-01-21T00:34:26.095Z,26.00
2023-01-21T00:36:53.648Z,26.97
2023-01-21T00:39:21.840Z,26.80
2023-01-21T00:41:48.507Z,27.43
2023-01-21T00:44:16.314Z,27.93
2023-01-21T00:46:43.016Z,28.77
2023-01-21T00:49:09.691Z,26.47
2023-01-21T00:51:36.376Z,28.50
2023-01-21T00:54:03.077Z,28.83
2023-01-21T00:56:29.744Z,26.23
2023-01-21T00:58:56.693Z,24.80
2023-01-21T01:01:23.806Z,26.70
2023-01-21T01:03:50.827Z,28.27
2023-01-21T01:06:19.671Z,26.37
2023-01-21T01:08:47.604Z,26.00
2023-01-21T01:11:14.563Z,27.63
2023-01-21T01:13:41.625Z,27.03
2023-01-21T01:16:08.639Z,27.10
2023-01-21T01:18:37.048Z,27.57
2023-01-21T01:21:05.590Z,25.77
2023-01-21T01:23:33.139Z,26.90
2023-01-21T01:26:02.404Z,28.07
2023-01-21T01:28:29.948Z,26.60
2023-01-21T01:30:57.987Z,27.33
2023-01-21T01:33:25.836Z,28.23
2023-01-21T01:35:52.484Z,27.07
2023-01-21T01:38:21.782Z,28.80
2023-01-21T01:40:50.669Z,26.50
2023-01-21T01:43:22.079Z,25.67
2023-01-21T01:45:49.578Z,27.60
2023-01-21T01:48:32.400Z,29.03
2023-01-21T01:51:03.523Z,25.13
2023-01-21T01:53:32.050Z,26.13
2023-01-21T01:55:59.651Z,26.00
2023-01-21T01:58:28.922Z,26.53
2023-01-21T02:00:55.790Z,26.43
2023-01-21T02:03:41.381Z,28.63
2023-01-21T02:06:08.075Z,26.33
2023-01-21T02:08:36.290Z,27.07
2023-01-21T02:11:06.528Z,25.97
2023-01-21T02:13:33.392Z,29.17
2023-01-21T02:16:27.751Z,28.20
2023-01-21T02:19:32.536Z,26.63
2023-01-21T02:22:24.062Z,27.33
2023-01-21T02:25:06.487Z,26.80
2023-01-21T02:27:40.594Z,26.63
2023-01-21T02:30:41.456Z,29.13
2023-01-21T02:33:28.978Z,28.17
2023-01-21T02:36:20.333Z,26.00
2023-01-21T02:38:53.491Z,25.97
2023-01-21T02:41:42.971Z,27.23
2023-01-21T02:44:32.463Z,26.93
2023-01-21T02:47:26.702Z,30.07
2023-01-21T02:49:58.895Z,27.37
2023-01-21T02:52:26.449Z,30.03
2023-01-21T02:54:56.381Z,26.77
2023-01-21T02:57:48.551Z,27.40
2023-01-21T03:00:22.695Z,26.10
2023-01-21T03:02:49.279Z,27.90
2023-01-21T03:05:32.530Z,28.17
2023-01-21T03:08:10.799Z,28.67
2023-01-21T03:10:43.328Z,31.17
2023-01-21T03:13:41.195Z,27.70
2023-01-21T03:16:28.892Z,29.00
2023-01-21T03:18:58.227Z,28.47
2023-01-21T03:21:28.031Z,29.43
2023-01-21T03:23:57.616Z,28.83
2023-01-21T03:26:31.051Z,28.70
2023-01-21T03:29:01.144Z,28.33
2023-01-21T03:31:32.412Z,30.00
2023-01-21T03:34:03.724Z,30.97
2023-01-21T03:36:33.504Z,29.00
2023-01-21T03:39:04.799Z,30.10
2023-01-21T03:41:36.448Z,29.80
2023-01-21T03:44:03.528Z,28.97
2023-01-21T03:46:41.669Z,29.70
2023-01-21T03:49:32.342Z,27.30
2023-01-21T03:52:01.735Z,29.17
2023-01-21T03:54:28.452Z,30.27
2023-01-21T03:56:55.095Z,32.07
2023-01-21T03:59:21.830Z,30.60
2023-01-21T04:01:48.567Z,29.60
2023-01-21T04:04:15.273Z,30.93
2023-01-21T04:06:41.934Z,31.77
2023-01-21T04:09:11.399Z,31.40
2023-01-21T04:11:38.129Z,33.30
2023-01-21T04:14:05.019Z,31.97
2023-01-21T04:16:31.759Z,32.93
2023-01-21T04:18:58.434Z,31.30
2023-01-21T04:21:25.103Z,31.50
2023-01-21T04:23:51.774Z,30.40
2023-01-21T04:26:18.434Z,33.77
2023-01-21T04:28:45.128Z,34.53
2023-01-21T04:31:11.791Z,34.50
2023-01-21T04:33:38.472Z,32.97
2023-01-21T04:36:05.520Z,34.43
2023-01-21T04:38:32.222Z,35.67
2023-01-21T04:40:58.915Z,37.50
2023-01-21T04:43:25.581Z,36.03
2023-01-21T04:45:52.430Z,38.47
2023-01-21T04:48:19.197Z,39.00
2023-01-21T04:50:46.828Z,37.10
2023-01-21T04:53:13.755Z,39.13
2023-01-21T04:55:40.417Z,36.83
2023-01-21T04:58:07.084Z,38.73
2023-01-21T05:00:33.784Z,39.40
2023-01-21T05:03:00.572Z,39.90
2023-01-21T05:05:27.267Z,39.00
2023-01-21T05:07:54.146Z,36.93
2023-01-21T05:10:21.117Z,39.60
2023-01-21T05:12:48.634Z,39.17
2023-01-21T05:15:15.523Z,40.23
2023-01-21T05:17:42.295Z,38.23
2023-01-21T05:20:09.772Z,39.53
2023-01-21T05:22:36.474Z,38.83
2023-01-21T05:25:03.460Z,37.97
2023-01-21T05:27:30.140Z,40.73
2023-01-21T05:29:57.174Z,36.97
2023-01-21T05:32:24.393Z,37.17
2023-01-21T05:34:51.036Z,40.47
2023-01-21T05:37:17.702Z,41.43
2023-01-21T05:39:44.654Z,37.27
2023-01-21T05:42:11.324Z,37.27
2023-01-21T05:44:38.075Z,37.50
2023-01-21T05:47:04.867Z,37.23
2023-01-21T05:49:31.548Z,36.20
2023-01-21T05:51:58.212Z,34.73
2023-01-21T05:54:24.927Z,35.10
2023-01-21T05:56:51.583Z,35.47
2023-01-21T05:59:18.222Z,36.77
2023-01-21T06:01:44.873Z,37.13
2023-01-21T06:04:11.534Z,37.37
2023-01-21T06:06:38.258Z,35.97
2023-01-21T06:09:04.943Z,33.57
2023-01-21T06:11:31.795Z,39.50
2023-01-21T06:13:58.569Z,34.60
2023-01-21T06:16:25.233Z,33.97
2023-01-21T06:18:51.877Z,34.93
2023-01-21T06:21:18.545Z,35.30
2023-01-21T06:23:45.215Z,34.17
2023-01-21T06:26:11.921Z,34.10
2023-01-21T06:28:38.612Z,33.47
2023-01-21T06:31:05.533Z,32.80
2023-01-21T06:33:32.207Z,34.97
2023-01-21T06:35:58.839Z,36.07
2023-01-21T06:38:25.494Z,33.87
2023-01-21T06:40:52.196Z,35.90
2023-01-21T06:43:18.907Z,33.73
2023-01-21T06:45:45.554Z,32.23
2023-01-21T06:48:12.231Z,32.23
2023-01-21T06:50:38.924Z,33.90
2023-01-21T06:53:05.578Z,33.37
2023-01-21T06:55:32.231Z,30.33
2023-01-21T06:57:58.926Z,32.60
2023-01-21T07:00:25.724Z,32.03
2023-01-21T07:02:59.080Z,31.07
2023-01-21T07:05:26.301Z,31.20
2023-01-21T07:07:57.414Z,33.80
2023-01-21T07:10:25.255Z,33.47
2023-01-21T07:12:52.110Z,32.77
2023-01-21T07:15:19.253Z,32.70
2023-01-21T07:17:46.204Z,32.33
2023-01-21T07:20:13.238Z,33.33
2023-01-21T07:22:40.286Z,32.43
2023-01-21T07:25:07.494Z,31.73
2023-01-21T07:27:34.210Z,31.60
2023-01-21T07:30:00.903Z,31.07
2023-01-21T07:32:27.587Z,30.47
2023-01-21T07:34:54.255Z,30.53
2023-01-21T07:37:20.979Z,31.80
2023-01-21T07:39:47.688Z,30.83
2023-01-21T07:42:14.339Z,29.43
2023-01-21T07:44:41.018Z,30.43
2023-01-21T07:47:10.659Z,28.67
2023-01-21T07:49:37.684Z,28.00
2023-01-21T07:52:04.660Z,30.30
2023-01-21T07:54:31.336Z,28.50
2023-01-21T07:56:58.295Z,31.17
2023-01-21T07:59:25.158Z,29.03
2023-01-21T08:01:52.419Z,29.50
2023-01-21T08:04:19.162Z,27.40
2023-01-21T08:06:45.799Z,26.73
2023-01-21T08:09:12.464Z,26.67
2023-01-21T08:11:39.263Z,27.10
2023-01-21T08:14:05.945Z,26.17
2023-01-21T08:16:32.698Z,28.73
2023-01-21T08:18:59.379Z,26.73
2023-01-21T08:21:26.052Z,28.43
2023-01-21T08:23:52.681Z,28.30
2023-01-21T08:26:19.321Z,29.13
2023-01-21T08:28:45.976Z,27.73
2023-01-21T08:31:13.664Z,27.80
2023-01-21T08:33:40.763Z,26.60
2023-01-21T08:36:08.843Z,27.33
2023-01-21T08:38:35.931Z,26.87
2023-01-21T08:41:02.709Z,28.30
2023-01-21T08:43:29.372Z,27.37
2023-01-21T08:45:57.630Z,27.10
2023-01-21T08:48:24.593Z,28.70
2023-01-21T08:50:51.280Z,26.93
2023-01-21T08:53:18.053Z,27.53
2023-01-21T08:55:44.913Z,28.80
2023-01-21T08:58:11.611Z,27.27
2023-01-21T09:00:38.408Z,30.17
2023-01-21T09:03:05.074Z,27.93
2023-01-21T09:05:31.772Z,28.43
2023-01-21T09:07:58.488Z,26.43
2023-01-21T09:10:44.160Z,26.47
2023-01-21T09:13:11.148Z,27.27
2023-01-21T09:15:39.659Z,28.27
2023-01-21T09:18:06.654Z,26.13
2023-01-21T09:20:33.397Z,27.87
2023-01-21T09:23:00.051Z,29.10
2023-01-21T09:25:26.875Z,26.27
2023-01-21T09:27:53.561Z,26.37
2023-01-21T09:30:20.260Z,24.23
2023-01-21T09:32:46.944Z,27.80
2023-01-21T09:35:13.653Z,26.87
2023-01-21T09:37:40.328Z,27.17
2023-01-21T09:40:09.006Z,26.73
2023-01-21T09:42:35.645Z,24.53
2023-01-21T09:45:03.893Z,24.97
2023-01-21T09:47:39.977Z,25.27
2023-01-21T09:50:19.391Z,26.07
2023-01-21T09:52:48.748Z,25.27
2023-01-21T09:55:20.364Z,25.53
2023-01-21T09:57:51.207Z,25.83
2023-01-21T10:00:31.424Z,27.57
2023-01-21T10:03:09.947Z,25.23
2023-01-21T10:05:57.490Z,24.80
2023-01-21T10:08:42.986Z,25.57
2023-01-21T10:11:45.988Z,28.87
2023-01-21T10:14:43.461Z,25.97
2023-01-21T10:17:37.024Z,34.80
2023-01-21T10:20:25.905Z,24.90
2023-01-21T10:23:06.109Z,28.50
2023-01-21T10:25:34.461Z,26.13
2023-01-21T10:28:31.001Z,27.77
2023-01-21T10:31:04.741Z,29.07
2023-01-21T10:33:33.136Z,25.13
2023-01-21T10:36:12.037Z,27.20
2023-01-21T10:38:47.033Z,32.13
2023-01-21T10:41:41.319Z,33.27
2023-01-21T10:44:36.375Z,29.67
2023-01-21T10:47:21.973Z,27.23
2023-01-21T10:50:27.557Z,26.23
2023-01-21T10:53:04.090Z,27.13
2023-01-21T10:55:43.795Z,25.63
2023-01-21T10:58:28.046Z,24.63
2023-01-21T11:00:56.187Z,25.47
2023-01-21T11:03:35.814Z,26.33
2023-01-21T11:06:04.484Z,25.53
2023-01-21T11:08:31.786Z,24.43
2023-01-21T11:10:59.457Z,27.33
2023-01-21T11:13:26.497Z,24.37
2023-01-21T11:15:55.580Z,23.30
2023-01-21T11:18:30.333Z,24.63
2023-01-21T11:21:03.592Z,24.93
2023-01-21T11:23:35.219Z,31.13
2023-01-21T11:26:04.687Z,27.93
2023-01-21T11:28:31.891Z,26.53
2023-01-21T11:31:12.405Z,25.40
2023-01-21T11:33:40.404Z,24.50
2023-01-21T11:36:17.550Z,24.60
2023-01-21T11:38:47.279Z,23.77
2023-01-21T11:41:15.579Z,25.03
2023-01-21T11:43:44.442Z,25.13
2023-01-21T11:46:27.116Z,24.13
2023-01-21T11:48:55.889Z,24.43
2023-01-21T11:51:22.744Z,24.93
2023-01-21T11:54:05.865Z,24.07
2023-01-21T11:56:32.690Z,23.17
2023-01-21T11:58:59.456Z,24.33
2023-01-21T12:01:26.287Z,23.20
2023-01-21T12:03:55.260Z,23.63
2023-01-21T12:06:26.143Z,25.33
2023-01-21T12:08:57.378Z,21.90
2023-01-21T12:11:26.799Z,23.20
2023-01-21T12:14:15.393Z,24.70
2023-01-21T12:17:02.053Z,21.67
2023-01-21T12:19:57.760Z,21.00
2023-01-21T12:22:49.074Z,21.97
2023-01-21T12:25:29.237Z,20.60
2023-01-21T12:28:25.484Z,21.23
2023-01-21T12:30:57.027Z,22.10
2023-01-21T12:34:02.396Z,20.43
2023-01-21T12:36:41.532Z,20.07
2023-01-21T12:39:17.465Z,21.87
2023-01-21T12:41:51.352Z,22.07
2023-01-21T12:44:44.740Z,22.63
2023-01-21T12:47:34.730Z,21.37
2023-01-21T12:50:23.339Z,22.43
2023-01-21T12:53:03.803Z,21.70
2023-01-21T12:56:20.881Z,20.63
2023-01-21T12:58:55.041Z,22.00
2023-01-21T13:01:48.504Z,20.70
2023-01-21T13:04:24.675Z,22.30
2023-01-21T13:07:02.395Z,22.67
2023-01-21T13:10:10.388Z,21.80
2023-01-21T13:12:39.707Z,22.40
2023-01-21T13:15:12.541Z,20.93
2023-01-21T13:17:42.918Z,19.63
2023-01-21T13:20:18.224Z,20.83
2023-01-21T13:22:55.745Z,19.47
2023-01-21T13:25:42.345Z,21.97
2023-01-21T13:28:38.289Z,19.27
2023-01-21T13:31:44.390Z,21.13
2023-01-21T13:34:30.378Z,19.90
2023-01-21T13:37:14.804Z,20.30
2023-01-21T13:40:08.235Z,21.47
2023-01-21T13:43:05.926Z,21.27
2023-01-21T13:45:51.448Z,20.67
2023-01-21T13:48:49.398Z,20.57
2023-01-21T13:52:02.811Z,20.13
2023-01-21T13:54:40.620Z,19.37
2023-01-21T13:57:29.821Z,20.73
2023-01-21T14:00:10.438Z,21.70
2023-01-21T14:02:45.719Z,20.43
2023-01-21T14:05:37.691Z,19.63
2023-01-21T14:08:21.114Z,21.03
2023-01-21T14:11:01.251Z,21.83
2023-01-21T14:13:31.041Z,19.60
2023-01-21T14:16:18.714Z,21.90
2023-01-21T14:19:09.820Z,21.30
2023-01-21T14:22:14.266Z,21.23
2023-01-21T14:24:58.753Z,20.13
2023-01-21T14:27:46.309Z,20.77
2023-01-21T14:30:22.366Z,21.73
2023-01-21T14:32:56.762Z,21.53
2023-01-21T14:35:36.106Z,22.97
2023-01-21T14:38:30.451Z,20.57
2023-01-21T14:41:06.917Z,23.37
2023-01-21T14:43:33.735Z,21.70
2023-01-21T14:46:01.356Z,22.07
2023-01-21T14:48:38.912Z,22.50
2023-01-21T14:51:05.663Z,21.90
2023-01-21T14:53:42.460Z,22.63
2023-01-21T14:56:21.517Z,23.17
2023-01-21T14:59:06.484Z,21.70
2023-01-21T15:01:45.764Z,21.20
2023-01-21T15:04:24.600Z,20.67
2023-01-21T15:06:58.640Z,22.00
2023-01-21T15:09:31.805Z,20.23
2023-01-21T15:12:12.094Z,21.33
2023-01-21T15:14:41.741Z,18.37
2023-01-21T15:17:52.920Z,20.23
2023-01-21T15:20:47.865Z,20.20
2023-01-21T15:23:34.993Z,18.47
2023-01-21T15:26:12.284Z,20.57
2023-01-21T15:28:46.215Z,19.17
2023-01-21T15:31:40.824Z,18.27
2023-01-21T15:34:14.719Z,19.13
2023-01-21T15:36:53.004Z,19.40
2023-01-21T15:39:29.001Z,19.50
2023-01-21T15:42:16.524Z,19.07
2023-01-21T15:44:48.136Z,20.07
2023-01-21T15:47:31.813Z,20.20
2023-01-21T15:50:21.788Z,20.43
2023-01-21T15:53:18.103Z,20.57
2023-01-21T15:55:59.821Z,21.17
2023-01-21T15:58:29.674Z,20.73
2023-01-21T16:01:08.055Z,21.23
2023-01-21T16:04:11.619Z,20.43
2023-01-21T16:06:50.148Z,20.70
2023-01-21T16:09:41.485Z,20.70
2023-01-21T16:12:36.390Z,21.37
2023-01-21T16:15:20.906Z,21.30
2023-01-21T16:18:02.603Z,21.97
2023-01-21T16:20:32.234Z,24.67
2023-01-21T16:23:02.705Z,24.93
2023-01-21T16:25:29.482Z,24.37
2023-01-21T16:27:57.005Z,24.90
2023-01-21T16:30:29.847Z,25.37
2023-01-21T16:33:16.393Z,23.07
2023-01-21T16:35:45.916Z,22.23
2023-01-21T16:38:21.664Z,23.53
2023-01-21T16:41:15.380Z,23.30
2023-01-21T16:43:49.034Z,27.20
2023-01-21T16:46:18.839Z,27.77
2023-01-21T16:48:51.073Z,28.33
2023-01-21T16:51:26.161Z,28.13
2023-01-21T16:53:53.792Z,28.07
2023-01-21T16:56:26.332Z,27.50
2023-01-21T16:58:53.129Z,28.50
2023-01-21T17:01:21.002Z,29.00
2023-01-21T17:03:47.816Z,26.80
2023-01-21T17:06:26.526Z,27.13
2023-01-21T17:09:01.751Z,26.90
2023-01-21T17:11:28.798Z,27.37
2023-01-21T17:13:55.555Z,25.87
2023-01-21T17:16:33.533Z,25.47
2023-01-21T17:19:04.435Z,24.97
2023-01-21T17:21:43.304Z,23.03
2023-01-21T17:24:33.964Z,24.63
2023-01-21T17:27:20.088Z,24.57
2023-01-21T17:29:46.868Z,24.53
2023-01-21T17:32:27.357Z,25.20
2023-01-21T17:35:24.029Z,25.57
2023-01-21T17:38:00.281Z,24.47
2023-01-21T17:40:39.248Z,25.30
2023-01-21T17:43:25.627Z,26.30
2023-01-21T17:45:55.049Z,27.83
2023-01-21T17:48:44.449Z,25.20
2023-01-21T17:51:20.143Z,25.70
2023-01-21T17:53:55.545Z,27.40
2023-01-21T17:56:47.993Z,27.03
2023-01-21T17:59:39.041Z,28.03
2023-01-21T18:02:11.443Z,25.17
2023-01-21T18:04:38.709Z,27.93
2023-01-21T18:07:24.884Z,29.73
2023-01-21T18:09:53.285Z,27.77
2023-01-21T18:12:20.591Z,30.20
2023-01-21T18:14:47.638Z,29.67
2023-01-21T18:17:19.972Z,31.47
2023-01-21T18:19:46.861Z,31.23
2023-01-21T18:22:27.709Z,29.33
2023-01-21T18:24:55.187Z,28.50
2023-01-21T18:27:25.844Z,27.87
2023-01-21T18:29:53.391Z,26.87
2023-01-21T18:32:20.508Z,25.90
2023-01-21T18:34:47.266Z,26.47
2023-01-21T18:37:19.074Z,27.10
2023-01-21T18:39:46.640Z,27.33
2023-01-21T18:42:17.958Z,25.07
2023-01-21T18:44:45.034Z,27.60
2023-01-21T18:47:20.615Z,27.17
2023-01-21T18:49:49.662Z,26.43
2023-01-21T18:52:20.868Z,26.50
2023-01-21T18:54:47.830Z,24.87
2023-01-21T18:57:18.163Z,24.67
2023-01-21T18:59:45.018Z,24.77
2023-01-21T19:02:16.033Z,25.73
2023-01-21T19:04:43.001Z,26.23
2023-01-21T19:07:17.532Z,25.23
2023-01-21T19:09:46.064Z,26.27
2023-01-21T19:12:13.787Z,25.80
2023-01-21T19:14:41.053Z,26.27
2023-01-21T19:17:13.349Z,27.03
2023-01-21T19:19:40.750Z,25.90
2023-01-21T19:22:15.471Z,25.50
2023-01-21T19:24:42.310Z,26.77
2023-01-21T19:27:28.594Z,27.27
2023-01-21T19:29:55.472Z,24.47
2023-01-21T19:32:22.139Z,27.10
2023-01-21T19:34:48.889Z,26.87
2023-01-21T19:37:18.623Z,28.03
2023-01-21T19:39:45.317Z,25.97
2023-01-21T19:42:14.418Z,27.27
2023-01-21T19:44:41.483Z,25.73
2023-01-21T19:47:22.875Z,28.07
2023-01-21T19:49:50.735Z,26.90
2023-01-21T19:52:17.393Z,27.77
2023-01-21T19:54:44.166Z,26.87
2023-01-21T19:57:15.245Z,27.50
2023-01-21T19:59:45.839Z,27.37
2023-01-21T20:02:12.943Z,24.57
2023-01-21T20:04:40.047Z,27.67
2023-01-21T20:07:07.215Z,27.13
2023-01-21T20:09:33.923Z,27.27
2023-01-21T20:12:03.340Z,25.13
2023-01-21T20:14:31.154Z,25.47
2023-01-21T20:16:57.996Z,26.47
2023-01-21T20:19:24.739Z,26.03
2023-01-21T20:22:02.748Z,26.73
2023-01-21T20:24:33.483Z,26.23
2023-01-21T20:27:02.318Z,23.77
2023-01-21T20:29:29.013Z,26.40
2023-01-21T20:31:55.760Z,25.07
2023-01-21T20:34:22.612Z,27.43
2023-01-21T20:36:50.885Z,25.43
2023-01-21T20:39:17.609Z,26.43
2023-01-21T20:41:44.545Z,26.63
2023-01-21T20:44:11.302Z,25.97
2023-01-21T20:46:39.102Z,25.60
2023-01-21T20:49:06.163Z,24.77
2023-01-21T20:51:32.847Z,27.10
2023-01-21T20:53:59.568Z,27.40
2023-01-21T20:56:29.846Z,26.50
2023-01-21T20:58:57.168Z,27.07
2023-01-21T21:01:26.167Z,25.93
2023-01-21T21:03:53.167Z,26.47
2023-01-21T21:06:22.653Z,25.03
2023-01-21T21:08:50.328Z,25.63
2023-01-21T21:11:18.428Z,26.60
2023-01-21T21:13:48.149Z,25.77
2023-01-21T21:16:22.225Z,27.07
2023-01-21T21:18:49.218Z,24.37
2023-01-21T21:21:17.422Z,26.00
2023-01-21T21:23:47.113Z,25.27
2023-01-21T21:26:20.704Z,26.00
2023-01-21T21:28:47.614Z,26.60
2023-01-21T21:31:16.450Z,25.53
2023-01-21T21:33:44.202Z,27.50
2023-01-21T21:36:16.117Z,26.53
2023-01-21T21:38:43.984Z,26.47
2023-01-21T21:41:39.689Z,27.17
2023-01-21T21:44:07.614Z,26.70
2023-01-21T21:46:53.219Z,24.93
2023-01-21T21:49:20.202Z,26.00
2023-01-21T21:51:46.889Z,27.23
2023-01-21T21:54:15.671Z,25.30
2023-01-21T21:56:43.403Z,24.03
2023-01-21T21:59:14.037Z,24.73
2023-01-21T22:01:42.866Z,25.73
2023-01-21T22:04:10.125Z,25.13
2023-01-21T22:06:36.988Z,24.93
2023-01-21T22:09:03.865Z,26.33
2023-01-21T22:11:30.994Z,26.80
2023-01-21T22:13:58.740Z,26.33
2023-01-21T22:16:27.824Z,25.87
2023-01-21T22:18:56.255Z,26.33
2023-01-21T22:21:28.540Z,26.27
2023-01-21T22:23:55.685Z,28.53
2023-01-21T22:26:24.732Z,26.60
2023-01-21T22:28:51.798Z,27.13
2023-01-21T22:31:26.875Z,27.03
2023-01-21T22:33:53.818Z,28.03
2023-01-21T22:36:22.907Z,27.10
2023-01-21T22:38:50.468Z,28.47
2023-01-21T22:41:20.121Z,29.90
2023-01-21T22:43:50.899Z,27.03
2023-01-21T22:46:21.039Z,27.23
2023-01-21T22:48:47.742Z,26.53
2023-01-21T22:51:16.748Z,26.53
2023-01-21T22:53:46.184Z,27.47
2023-01-21T22:56:14.631Z,27.40
2023-01-21T22:58:41.767Z,28.97
2023-01-21T23:01:19.746Z,26.83
2023-01-21T23:03:46.471Z,27.43
2023-01-21T23:06:13.177Z,28.33
2023-01-21T23:08:39.907Z,29.70
2023-01-21T23:11:08.576Z,25.07
2023-01-21T23:13:35.843Z,29.50
2023-01-21T23:16:06.512Z,30.43
2023-01-21T23:18:34.620Z,29.87
2023-01-21T23:21:06.110Z,28.63
2023-01-21T23:23:35.763Z,30.70
2023-01-21T23:26:03.776Z,29.10
2023-01-21T23:28:30.744Z,30.30
2023-01-21T23:30:57.436Z,29.70
2023-01-21T23:33:25.574Z,29.80
2023-01-21T23:35:55.630Z,29.73
2023-01-21T23:38:22.570Z,28.83
2023-01-21T23:40:49.272Z,27.93
2023-01-21T23:43:15.956Z,29.90
2023-01-21T23:45:42.653Z,29.87
2023-01-21T23:48:09.517Z,28.03
2023-01-21T23:50:36.171Z,27.53
2023-01-21T23:53:02.828Z,27.93
2023-01-21T23:55:29.458Z,28.53
2023-01-21T23:57:57.312Z,27.03
